sensor_id;sensor_type;location;lat;lon;timestamp;P1;durP1;ratioP1;P2;durP2;ratioP2
35239;SDS011;21376;50.954;4.716;2023-03-02T00:07:13;36.80;;;18.98;;
35239;SDS011;21376;50.954;4.716;2023-03-02T00:12:14;37.95;;;19.02;;
35239;SDS011;21376;50.954;4.716;2023-03-02T00:14:42;38.22;;;19.48;;
35239;SDS011;21376;50.954;4.716;2023-03-02T00:17:19;35.67;;;17.48;;
35239;SDS011;21376;50.954;4.716;2023-03-02T00:19:54;34.65;;;18.77;;
35239;SDS011;21376;50.954;4.716;2023-03-02T00:22:42;36.78;;;18.50;;
35239;SDS011;21376;50.954;4.716;2023-03-02T00:25:11;42.70;;;18.60;;
35239;SDS011;21376;50.954;4.716;2023-03-02T00:27:38;35.83;;;19.10;;
35239;SDS011;21376;50.954;4.716;2023-03-02T00:30:07;42.00;;;20.45;;
35239;SDS011;21376;50.954;4.716;2023-03-02T00:32:36;37.28;;;19.83;;
35239;SDS011;21376;50.954;4.716;2023-03-02T00:35:03;38.83;;;20.90;;
35239;SDS011;21376;50.954;4.716;2023-03-02T00:37:30;34.65;;;18.55;;
35239;SDS011;21376;50.954;4.716;2023-03-02T00:39:56;40.53;;;20.85;;
35239;SDS011;21376;50.954;4.716;2023-03-02T00:42:22;45.45;;;21.10;;
35239;SDS011;21376;50.954;4.716;2023-03-02T00:44:51;43.90;;;21.80;;
35239;SDS011;21376;50.954;4.716;2023-03-02T00:47:25;47.80;;;21.85;;
35239;SDS011;21376;50.954;4.716;2023-03-02T00:49:54;45.22;;;21.42;;
35239;SDS011;21376;50.954;4.716;2023-03-02T00:52:20;42.60;;;20.83;;
35239;SDS011;21376;50.954;4.716;2023-03-02T00:54:49;47.60;;;21.38;;
35239;SDS011;21376;50.954;4.716;2023-03-02T00:57:24;42.13;;;22.43;;
35239;SDS011;21376;50.954;4.716;2023-03-02T00:59:53;46.20;;;22.48;;
35239;SDS011;21376;50.954;4.716;2023-03-02T01:02:26;46.88;;;21.48;;
35239;SDS011;21376;50.954;4.716;2023-03-02T01:04:52;41.92;;;20.90;;
35239;SDS011;21376;50.954;4.716;2023-03-02T01:07:20;39.45;;;20.77;;
35239;SDS011;21376;50.954;4.716;2023-03-02T01:09:50;42.38;;;21.20;;
35239;SDS011;21376;50.954;4.716;2023-03-02T01:12:16;44.22;;;21.52;;
35239;SDS011;21376;50.954;4.716;2023-03-02T01:14:43;41.00;;;21.02;;
35239;SDS011;21376;50.954;4.716;2023-03-02T01:17:13;45.13;;;22.00;;
35239;SDS011;21376;50.954;4.716;2023-03-02T01:22:11;39.38;;;19.70;;
35239;SDS011;21376;50.954;4.716;2023-03-02T01:24:36;42.45;;;20.65;;
35239;SDS011;21376;50.954;4.716;2023-03-02T01:27:04;42.90;;;20.50;;
35239;SDS011;21376;50.954;4.716;2023-03-02T01:29:33;47.08;;;19.67;;
35239;SDS011;21376;50.954;4.716;2023-03-02T01:34:29;42.42;;;21.05;;
35239;SDS011;21376;50.954;4.716;2023-03-02T01:36:56;41.05;;;20.83;;
35239;SDS011;21376;50.954;4.716;2023-03-02T01:39:22;42.50;;;21.25;;
35239;SDS011;21376;50.954;4.716;2023-03-02T01:41:50;41.13;;;20.63;;
35239;SDS011;21376;50.954;4.716;2023-03-02T01:50:17;47.75;;;21.05;;
35239;SDS011;21376;50.954;4.716;2023-03-02T01:52:46;43.05;;;20.80;;
35239;SDS011;21376;50.954;4.716;2023-03-02T01:55:16;45.03;;;21.38;;
35239;SDS011;21376;50.954;4.716;2023-03-02T01:57:49;38.05;;;19.75;;
35239;SDS011;21376;50.954;4.716;2023-03-02T02:00:24;41.42;;;20.65;;
35239;SDS011;21376;50.954;4.716;2023-03-02T02:02:54;42.80;;;20.55;;
35239;SDS011;21376;50.954;4.716;2023-03-02T02:05:33;40.63;;;20.45;;
35239;SDS011;21376;50.954;4.716;2023-03-02T02:08:04;42.25;;;20.02;;
35239;SDS011;21376;50.954;4.716;2023-03-02T02:10:32;36.75;;;19.58;;
35239;SDS011;21376;50.954;4.716;2023-03-02T02:13:01;40.75;;;20.27;;
35239;SDS011;21376;50.954;4.716;2023-03-02T02:15:27;42.35;;;20.83;;
35239;SDS011;21376;50.954;4.716;2023-03-02T02:17:53;45.75;;;21.33;;
35239;SDS011;21376;50.954;4.716;2023-03-02T02:28:38;44.80;;;20.73;;
35239;SDS011;21376;50.954;4.716;2023-03-02T02:31:20;46.03;;;21.52;;
35239;SDS011;21376;50.954;4.716;2023-03-02T02:34:11;40.92;;;20.77;;
35239;SDS011;21376;50.954;4.716;2023-03-02T02:36:50;42.13;;;20.88;;
35239;SDS011;21376;50.954;4.716;2023-03-02T02:39:23;43.08;;;21.33;;
35239;SDS011;21376;50.954;4.716;2023-03-02T02:41:57;46.67;;;20.80;;
35239;SDS011;21376;50.954;4.716;2023-03-02T02:44:29;40.78;;;20.52;;
35239;SDS011;21376;50.954;4.716;2023-03-02T02:47:01;42.70;;;21.25;;
35239;SDS011;21376;50.954;4.716;2023-03-02T02:49:29;40.70;;;20.13;;
35239;SDS011;21376;50.954;4.716;2023-03-02T02:52:01;45.20;;;20.90;;
35239;SDS011;21376;50.954;4.716;2023-03-02T02:54:31;48.63;;;23.50;;
35239;SDS011;21376;50.954;4.716;2023-03-02T02:57:01;50.92;;;23.60;;
35239;SDS011;21376;50.954;4.716;2023-03-02T02:59:34;50.50;;;23.23;;
35239;SDS011;21376;50.954;4.716;2023-03-02T03:04:56;43.35;;;22.02;;
35239;SDS011;21376;50.954;4.716;2023-03-02T03:07:29;39.88;;;20.15;;
35239;SDS011;21376;50.954;4.716;2023-03-02T03:10:00;46.05;;;20.98;;
35239;SDS011;21376;50.954;4.716;2023-03-02T03:12:36;43.97;;;21.42;;
35239;SDS011;21376;50.954;4.716;2023-03-02T03:15:04;47.10;;;22.40;;
35239;SDS011;21376;50.954;4.716;2023-03-02T03:17:34;47.80;;;22.15;;
35239;SDS011;21376;50.954;4.716;2023-03-02T03:19:59;46.17;;;21.73;;
35239;SDS011;21376;50.954;4.716;2023-03-02T03:22:36;42.17;;;21.45;;
35239;SDS011;21376;50.954;4.716;2023-03-02T03:25:06;46.42;;;21.15;;
35239;SDS011;21376;50.954;4.716;2023-03-02T03:27:33;48.75;;;22.27;;
35239;SDS011;21376;50.954;4.716;2023-03-02T03:30:02;47.10;;;22.05;;
35239;SDS011;21376;50.954;4.716;2023-03-02T03:32:32;42.28;;;21.50;;
35239;SDS011;21376;50.954;4.716;2023-03-02T03:35:08;44.42;;;20.52;;
35239;SDS011;21376;50.954;4.716;2023-03-02T03:37:36;41.70;;;20.38;;
35239;SDS011;21376;50.954;4.716;2023-03-02T03:40:06;41.63;;;19.48;;
35239;SDS011;21376;50.954;4.716;2023-03-02T03:42:34;39.65;;;20.42;;
35239;SDS011;21376;50.954;4.716;2023-03-02T03:45:03;43.17;;;21.60;;
35239;SDS011;21376;50.954;4.716;2023-03-02T03:47:35;43.95;;;21.48;;
35239;SDS011;21376;50.954;4.716;2023-03-02T03:52:33;44.85;;;21.05;;
35239;SDS011;21376;50.954;4.716;2023-03-02T03:55:02;42.63;;;21.00;;
35239;SDS011;21376;50.954;4.716;2023-03-02T03:57:34;40.33;;;18.80;;
35239;SDS011;21376;50.954;4.716;2023-03-02T04:00:04;38.28;;;19.50;;
35239;SDS011;21376;50.954;4.716;2023-03-02T04:02:36;36.67;;;19.83;;
35239;SDS011;21376;50.954;4.716;2023-03-02T04:07:32;40.83;;;19.75;;
35239;SDS011;21376;50.954;4.716;2023-03-02T04:12:30;36.42;;;18.23;;
35239;SDS011;21376;50.954;4.716;2023-03-02T04:14:58;46.88;;;21.05;;
35239;SDS011;21376;50.954;4.716;2023-03-02T04:17:26;40.55;;;20.95;;
35239;SDS011;21376;50.954;4.716;2023-03-02T04:19:55;39.45;;;21.13;;
35239;SDS011;21376;50.954;4.716;2023-03-02T04:22:22;41.00;;;19.55;;
35239;SDS011;21376;50.954;4.716;2023-03-02T04:25:00;40.47;;;20.25;;
35239;SDS011;21376;50.954;4.716;2023-03-02T04:27:26;38.63;;;18.83;;
35239;SDS011;21376;50.954;4.716;2023-03-02T04:32:23;41.53;;;20.52;;
35239;SDS011;21376;50.954;4.716;2023-03-02T04:35:01;41.20;;;20.27;;
35239;SDS011;21376;50.954;4.716;2023-03-02T04:37:34;41.63;;;19.15;;
35239;SDS011;21376;50.954;4.716;2023-03-02T04:42:32;39.63;;;20.02;;
35239;SDS011;21376;50.954;4.716;2023-03-02T04:47:37;37.53;;;19.90;;
35239;SDS011;21376;50.954;4.716;2023-03-02T04:50:04;39.55;;;18.52;;
35239;SDS011;21376;50.954;4.716;2023-03-02T04:52:34;36.70;;;18.45;;
35239;SDS011;21376;50.954;4.716;2023-03-02T04:55:01;37.30;;;17.85;;
35239;SDS011;21376;50.954;4.716;2023-03-02T04:57:27;37.55;;;18.67;;
35239;SDS011;21376;50.954;4.716;2023-03-02T04:59:53;34.67;;;17.83;;
35239;SDS011;21376;50.954;4.716;2023-03-02T05:02:20;32.20;;;17.05;;
35239;SDS011;21376;50.954;4.716;2023-03-02T05:04:48;33.85;;;17.48;;
35239;SDS011;21376;50.954;4.716;2023-03-02T05:07:14;36.83;;;18.23;;
35239;SDS011;21376;50.954;4.716;2023-03-02T05:12:09;40.05;;;17.77;;
35239;SDS011;21376;50.954;4.716;2023-03-02T05:14:41;37.22;;;18.52;;
35239;SDS011;21376;50.954;4.716;2023-03-02T05:17:10;35.03;;;18.13;;
35239;SDS011;21376;50.954;4.716;2023-03-02T05:19:36;36.45;;;18.40;;
35239;SDS011;21376;50.954;4.716;2023-03-02T05:22:03;36.33;;;18.05;;
35239;SDS011;21376;50.954;4.716;2023-03-02T05:26:58;34.88;;;18.13;;
35239;SDS011;21376;50.954;4.716;2023-03-02T05:29:30;33.70;;;16.92;;
35239;SDS011;21376;50.954;4.716;2023-03-02T05:31:56;31.13;;;16.23;;
35239;SDS011;21376;50.954;4.716;2023-03-02T05:34:22;35.80;;;17.63;;
35239;SDS011;21376;50.954;4.716;2023-03-02T05:36:49;34.75;;;17.48;;
35239;SDS011;21376;50.954;4.716;2023-03-02T05:41:47;36.35;;;18.15;;
35239;SDS011;21376;50.954;4.716;2023-03-02T05:44:13;36.70;;;18.30;;
35239;SDS011;21376;50.954;4.716;2023-03-02T05:46:41;34.63;;;17.42;;
35239;SDS011;21376;50.954;4.716;2023-03-02T05:54:07;34.00;;;15.93;;
35239;SDS011;21376;50.954;4.716;2023-03-02T05:56:34;32.38;;;16.13;;
35239;SDS011;21376;50.954;4.716;2023-03-02T05:59:01;33.25;;;16.95;;
35239;SDS011;21376;50.954;4.716;2023-03-02T06:03:52;36.15;;;17.55;;
35239;SDS011;21376;50.954;4.716;2023-03-02T06:06:17;37.35;;;17.17;;
35239;SDS011;21376;50.954;4.716;2023-03-02T06:11:12;33.92;;;16.40;;
35239;SDS011;21376;50.954;4.716;2023-03-02T06:13:38;33.90;;;15.70;;
35239;SDS011;21376;50.954;4.716;2023-03-02T06:16:04;34.67;;;16.40;;
35239;SDS011;21376;50.954;4.716;2023-03-02T06:18:31;33.33;;;16.33;;
35239;SDS011;21376;50.954;4.716;2023-03-02T06:20:59;33.95;;;16.48;;
35239;SDS011;21376;50.954;4.716;2023-03-02T06:23:31;33.80;;;16.58;;
35239;SDS011;21376;50.954;4.716;2023-03-02T06:25:58;32.70;;;16.40;;
35239;SDS011;21376;50.954;4.716;2023-03-02T06:28:38;30.17;;;15.52;;
35239;SDS011;21376;50.954;4.716;2023-03-02T06:31:07;36.08;;;17.20;;
35239;SDS011;21376;50.954;4.716;2023-03-02T06:33:36;29.55;;;15.10;;
35239;SDS011;21376;50.954;4.716;2023-03-02T06:36:04;35.05;;;15.50;;
35239;SDS011;21376;50.954;4.716;2023-03-02T06:38:30;30.67;;;15.00;;
35239;SDS011;21376;50.954;4.716;2023-03-02T06:40:56;36.70;;;16.38;;
35239;SDS011;21376;50.954;4.716;2023-03-02T06:43:22;30.00;;;15.38;;
35239;SDS011;21376;50.954;4.716;2023-03-02T06:45:48;31.65;;;15.82;;
35239;SDS011;21376;50.954;4.716;2023-03-02T06:48:16;28.20;;;14.75;;
35239;SDS011;21376;50.954;4.716;2023-03-02T06:50:41;35.17;;;15.02;;
35239;SDS011;21376;50.954;4.716;2023-03-02T06:53:08;28.90;;;14.57;;
35239;SDS011;21376;50.954;4.716;2023-03-02T06:55:41;26.38;;;13.82;;
35239;SDS011;21376;50.954;4.716;2023-03-02T06:58:06;27.88;;;13.95;;
35239;SDS011;21376;50.954;4.716;2023-03-02T07:00:38;24.60;;;13.77;;
35239;SDS011;21376;50.954;4.716;2023-03-02T07:03:05;29.05;;;15.07;;
35239;SDS011;21376;50.954;4.716;2023-03-02T07:05:33;25.40;;;13.93;;
35239;SDS011;21376;50.954;4.716;2023-03-02T07:08:01;30.38;;;15.23;;
35239;SDS011;21376;50.954;4.716;2023-03-02T07:12:57;33.92;;;16.35;;
35239;SDS011;21376;50.954;4.716;2023-03-02T07:15:24;38.70;;;15.88;;
35239;SDS011;21376;50.954;4.716;2023-03-02T07:17:51;57.45;;;17.15;;
35239;SDS011;21376;50.954;4.716;2023-03-02T07:20:17;58.15;;;17.70;;
35239;SDS011;21376;50.954;4.716;2023-03-02T07:22:44;34.20;;;12.85;;
35239;SDS011;21376;50.954;4.716;2023-03-02T07:25:12;17.50;;;10.50;;
35239;SDS011;21376;50.954;4.716;2023-03-02T07:27:39;18.33;;;10.48;;
35239;SDS011;21376;50.954;4.716;2023-03-02T07:30:05;28.50;;;11.20;;
35239;SDS011;21376;50.954;4.716;2023-03-02T07:32:32;21.30;;;11.05;;
35239;SDS011;21376;50.954;4.716;2023-03-02T07:34:59;21.08;;;11.52;;
35239;SDS011;21376;50.954;4.716;2023-03-02T07:37:27;16.80;;;11.05;;
35239;SDS011;21376;50.954;4.716;2023-03-02T07:39:55;19.25;;;11.13;;
35239;SDS011;21376;50.954;4.716;2023-03-02T07:42:22;18.85;;;10.95;;
35239;SDS011;21376;50.954;4.716;2023-03-02T07:44:50;19.27;;;11.13;;
35239;SDS011;21376;50.954;4.716;2023-03-02T07:47:18;19.92;;;10.48;;
35239;SDS011;21376;50.954;4.716;2023-03-02T07:49:44;16.65;;;10.70;;
35239;SDS011;21376;50.954;4.716;2023-03-02T07:52:09;16.27;;;10.93;;
35239;SDS011;21376;50.954;4.716;2023-03-02T07:54:35;16.58;;;11.40;;
35239;SDS011;21376;50.954;4.716;2023-03-02T07:57:03;17.08;;;11.00;;
35239;SDS011;21376;50.954;4.716;2023-03-02T07:59:30;17.52;;;10.88;;
35239;SDS011;21376;50.954;4.716;2023-03-02T08:01:59;20.98;;;13.02;;
35239;SDS011;21376;50.954;4.716;2023-03-02T08:04:25;17.95;;;11.40;;
35239;SDS011;21376;50.954;4.716;2023-03-02T08:06:51;22.90;;;11.93;;
35239;SDS011;21376;50.954;4.716;2023-03-02T08:09:17;15.52;;;10.50;;
35239;SDS011;21376;50.954;4.716;2023-03-02T08:11:42;14.77;;;10.57;;
35239;SDS011;21376;50.954;4.716;2023-03-02T08:14:11;17.80;;;11.85;;
35239;SDS011;21376;50.954;4.716;2023-03-02T08:16:38;16.55;;;10.45;;
35239;SDS011;21376;50.954;4.716;2023-03-02T08:19:04;21.30;;;12.55;;
35239;SDS011;21376;50.954;4.716;2023-03-02T08:21:31;19.48;;;11.90;;
35239;SDS011;21376;50.954;4.716;2023-03-02T08:24:03;21.75;;;11.25;;
35239;SDS011;21376;50.954;4.716;2023-03-02T08:26:30;15.90;;;11.38;;
35239;SDS011;21376;50.954;4.716;2023-03-02T08:28:57;16.85;;;11.05;;
35239;SDS011;21376;50.954;4.716;2023-03-02T08:31:24;17.63;;;11.52;;
35239;SDS011;21376;50.954;4.716;2023-03-02T08:33:53;19.15;;;11.27;;
35239;SDS011;21376;50.954;4.716;2023-03-02T08:36:19;15.98;;;11.40;;
35239;SDS011;21376;50.954;4.716;2023-03-02T08:38:48;18.75;;;12.57;;
35239;SDS011;21376;50.954;4.716;2023-03-02T08:41:15;17.52;;;12.02;;
35239;SDS011;21376;50.954;4.716;2023-03-02T08:43:43;16.25;;;11.60;;
35239;SDS011;21376;50.954;4.716;2023-03-02T08:46:12;22.27;;;13.02;;
35239;SDS011;21376;50.954;4.716;2023-03-02T08:48:51;19.38;;;11.88;;
35239;SDS011;21376;50.954;4.716;2023-03-02T08:51:21;17.75;;;11.88;;
35239;SDS011;21376;50.954;4.716;2023-03-02T08:53:49;22.65;;;10.98;;
35239;SDS011;21376;50.954;4.716;2023-03-02T08:56:20;18.55;;;12.05;;
35239;SDS011;21376;50.954;4.716;2023-03-02T08:58:52;20.58;;;11.45;;
35239;SDS011;21376;50.954;4.716;2023-03-02T09:01:21;16.40;;;12.82;;
35239;SDS011;21376;50.954;4.716;2023-03-02T09:03:48;19.35;;;11.73;;
35239;SDS011;21376;50.954;4.716;2023-03-02T09:06:18;15.50;;;11.95;;
35239;SDS011;21376;50.954;4.716;2023-03-02T09:08:45;19.23;;;12.50;;
35239;SDS011;21376;50.954;4.716;2023-03-02T09:11:13;15.43;;;11.50;;
35239;SDS011;21376;50.954;4.716;2023-03-02T09:13:39;20.33;;;12.05;;
35239;SDS011;21376;50.954;4.716;2023-03-02T09:16:05;17.00;;;12.23;;
35239;SDS011;21376;50.954;4.716;2023-03-02T09:18:33;20.60;;;12.85;;
35239;SDS011;21376;50.954;4.716;2023-03-02T09:21:02;21.42;;;12.80;;
35239;SDS011;21376;50.954;4.716;2023-03-02T09:23:28;17.90;;;12.90;;
35239;SDS011;21376;50.954;4.716;2023-03-02T09:25:55;16.95;;;12.07;;
35239;SDS011;21376;50.954;4.716;2023-03-02T09:28:21;18.48;;;11.57;;
35239;SDS011;21376;50.954;4.716;2023-03-02T09:30:51;17.90;;;12.77;;
35239;SDS011;21376;50.954;4.716;2023-03-02T09:33:20;21.90;;;13.48;;
35239;SDS011;21376;50.954;4.716;2023-03-02T09:35:46;20.48;;;13.80;;
35239;SDS011;21376;50.954;4.716;2023-03-02T09:38:13;20.90;;;13.82;;
35239;SDS011;21376;50.954;4.716;2023-03-02T09:43:24;95.22;;;50.53;;
35239;SDS011;21376;50.954;4.716;2023-03-02T09:49:06;109.68;;;49.05;;
35239;SDS011;21376;50.954;4.716;2023-03-02T09:54:12;21.88;;;14.77;;
35239;SDS011;21376;50.954;4.716;2023-03-02T09:56:44;20.05;;;14.68;;
35239;SDS011;21376;50.954;4.716;2023-03-02T09:59:25;21.25;;;16.13;;
35239;SDS011;21376;50.954;4.716;2023-03-02T10:04:56;22.92;;;15.88;;
35239;SDS011;21376;50.954;4.716;2023-03-02T10:07:29;23.70;;;18.77;;
35239;SDS011;21376;50.954;4.716;2023-03-02T10:16:04;20.48;;;15.23;;
35239;SDS011;21376;50.954;4.716;2023-03-02T10:18:48;21.02;;;16.00;;
35239;SDS011;21376;50.954;4.716;2023-03-02T10:24:25;32.97;;;24.80;;
35239;SDS011;21376;50.954;4.716;2023-03-02T10:27:18;24.05;;;17.17;;
35239;SDS011;21376;50.954;4.716;2023-03-02T10:32:51;23.92;;;15.35;;
35239;SDS011;21376;50.954;4.716;2023-03-02T10:38:08;19.85;;;14.75;;
35239;SDS011;21376;50.954;4.716;2023-03-02T10:40:49;20.75;;;13.77;;
35239;SDS011;21376;50.954;4.716;2023-03-02T10:43:34;18.10;;;13.82;;
35239;SDS011;21376;50.954;4.716;2023-03-02T10:46:05;22.10;;;14.77;;
35239;SDS011;21376;50.954;4.716;2023-03-02T10:51:28;21.30;;;14.98;;
35239;SDS011;21376;50.954;4.716;2023-03-02T10:54:13;22.33;;;15.25;;
35239;SDS011;21376;50.954;4.716;2023-03-02T10:56:46;19.70;;;14.45;;
35239;SDS011;21376;50.954;4.716;2023-03-02T11:04:41;22.73;;;14.82;;
35239;SDS011;21376;50.954;4.716;2023-03-02T11:07:19;19.73;;;14.57;;
35239;SDS011;21376;50.954;4.716;2023-03-02T11:10:01;23.10;;;14.65;;
35239;SDS011;21376;50.954;4.716;2023-03-02T11:15:27;21.17;;;14.27;;
35239;SDS011;21376;50.954;4.716;2023-03-02T11:24:08;19.75;;;14.23;;
35239;SDS011;21376;50.954;4.716;2023-03-02T11:26:58;21.15;;;15.07;;
35239;SDS011;21376;50.954;4.716;2023-03-02T11:35:32;21.98;;;15.20;;
35239;SDS011;21376;50.954;4.716;2023-03-02T11:40:47;19.73;;;14.40;;
35239;SDS011;21376;50.954;4.716;2023-03-02T11:43:13;21.75;;;15.02;;
35239;SDS011;21376;50.954;4.716;2023-03-02T11:45:44;21.65;;;14.60;;
35239;SDS011;21376;50.954;4.716;2023-03-02T11:51:09;22.23;;;14.90;;
35239;SDS011;21376;50.954;4.716;2023-03-02T11:56:28;24.27;;;14.38;;
35239;SDS011;21376;50.954;4.716;2023-03-02T11:58:59;23.35;;;14.82;;
35239;SDS011;21376;50.954;4.716;2023-03-02T12:04:05;20.13;;;14.43;;
35239;SDS011;21376;50.954;4.716;2023-03-02T12:07:00;21.95;;;14.82;;
35239;SDS011;21376;50.954;4.716;2023-03-02T12:09:30;24.83;;;15.93;;
35239;SDS011;21376;50.954;4.716;2023-03-02T12:17:21;22.08;;;14.77;;
35239;SDS011;21376;50.954;4.716;2023-03-02T12:22:45;22.02;;;15.10;;
35239;SDS011;21376;50.954;4.716;2023-03-02T12:27:45;22.38;;;15.85;;
35239;SDS011;21376;50.954;4.716;2023-03-02T12:35:44;29.08;;;16.20;;
35239;SDS011;21376;50.954;4.716;2023-03-02T12:38:30;28.42;;;19.00;;
35239;SDS011;21376;50.954;4.716;2023-03-02T12:41:03;28.70;;;20.02;;
35239;SDS011;21376;50.954;4.716;2023-03-02T12:44:06;29.13;;;19.73;;
35239;SDS011;21376;50.954;4.716;2023-03-02T12:46:46;27.00;;;18.75;;
35239;SDS011;21376;50.954;4.716;2023-03-02T12:52:31;25.48;;;17.77;;
35239;SDS011;21376;50.954;4.716;2023-03-02T12:57:49;23.40;;;15.32;;
35239;SDS011;21376;50.954;4.716;2023-03-02T13:00:18;22.02;;;15.20;;
35239;SDS011;21376;50.954;4.716;2023-03-02T13:02:48;23.27;;;14.95;;
35239;SDS011;21376;50.954;4.716;2023-03-02T13:05:18;23.65;;;15.57;;
35239;SDS011;21376;50.954;4.716;2023-03-02T13:07:52;22.77;;;15.13;;
35239;SDS011;21376;50.954;4.716;2023-03-02T13:13:01;22.35;;;13.27;;
35239;SDS011;21376;50.954;4.716;2023-03-02T13:15:49;23.42;;;14.48;;
35239;SDS011;21376;50.954;4.716;2023-03-02T13:18:19;23.60;;;15.23;;
35239;SDS011;21376;50.954;4.716;2023-03-02T13:20:48;25.45;;;15.50;;
35239;SDS011;21376;50.954;4.716;2023-03-02T13:23:43;22.65;;;14.52;;
35239;SDS011;21376;50.954;4.716;2023-03-02T13:29:04;21.15;;;14.27;;
35239;SDS011;21376;50.954;4.716;2023-03-02T13:31:40;22.17;;;15.45;;
35239;SDS011;21376;50.954;4.716;2023-03-02T13:34:17;20.67;;;14.40;;
35239;SDS011;21376;50.954;4.716;2023-03-02T13:36:51;23.42;;;14.98;;
35239;SDS011;21376;50.954;4.716;2023-03-02T13:39:24;23.40;;;15.02;;
35239;SDS011;21376;50.954;4.716;2023-03-02T13:41:56;27.25;;;15.57;;
35239;SDS011;21376;50.954;4.716;2023-03-02T13:44:29;22.98;;;15.18;;
35239;SDS011;21376;50.954;4.716;2023-03-02T13:46:57;24.50;;;15.20;;
35239;SDS011;21376;50.954;4.716;2023-03-02T13:49:27;27.25;;;15.40;;
35239;SDS011;21376;50.954;4.716;2023-03-02T13:54:41;28.40;;;16.13;;
35239;SDS011;21376;50.954;4.716;2023-03-02T13:57:13;27.35;;;15.65;;
35239;SDS011;21376;50.954;4.716;2023-03-02T13:59:41;29.90;;;15.65;;
35239;SDS011;21376;50.954;4.716;2023-03-02T14:02:40;27.70;;;15.45;;
35239;SDS011;21376;50.954;4.716;2023-03-02T14:04:58;27.98;;;16.08;;
35239;SDS011;21376;50.954;4.716;2023-03-02T14:07:30;23.33;;;14.90;;
35239;SDS011;21376;50.954;4.716;2023-03-02T14:09:56;24.17;;;15.27;;
35239;SDS011;21376;50.954;4.716;2023-03-02T14:12:27;28.98;;;14.25;;
35239;SDS011;21376;50.954;4.716;2023-03-02T14:14:57;29.58;;;16.15;;
35239;SDS011;21376;50.954;4.716;2023-03-02T14:17:26;27.27;;;14.90;;
35239;SDS011;21376;50.954;4.716;2023-03-02T14:19:52;28.00;;;15.40;;
35239;SDS011;21376;50.954;4.716;2023-03-02T14:22:20;25.38;;;15.32;;
35239;SDS011;21376;50.954;4.716;2023-03-02T14:24:47;25.48;;;14.85;;
35239;SDS011;21376;50.954;4.716;2023-03-02T14:27:15;25.58;;;15.30;;
35239;SDS011;21376;50.954;4.716;2023-03-02T14:29:45;30.52;;;16.20;;
35239;SDS011;21376;50.954;4.716;2023-03-02T14:32:14;29.58;;;15.00;;
35239;SDS011;21376;50.954;4.716;2023-03-02T14:34:40;24.83;;;14.88;;
35239;SDS011;21376;50.954;4.716;2023-03-02T14:37:09;25.45;;;15.18;;
35239;SDS011;21376;50.954;4.716;2023-03-02T14:39:45;25.73;;;14.90;;
35239;SDS011;21376;50.954;4.716;2023-03-02T14:42:19;25.67;;;15.35;;
35239;SDS011;21376;50.954;4.716;2023-03-02T14:44:49;24.95;;;14.95;;
35239;SDS011;21376;50.954;4.716;2023-03-02T14:47:17;27.30;;;14.75;;
35239;SDS011;21376;50.954;4.716;2023-03-02T14:49:43;24.13;;;14.73;;
35239;SDS011;21376;50.954;4.716;2023-03-02T14:52:16;26.58;;;13.98;;
35239;SDS011;21376;50.954;4.716;2023-03-02T14:54:56;27.95;;;14.85;;
35239;SDS011;21376;50.954;4.716;2023-03-02T14:57:25;28.75;;;15.88;;
35239;SDS011;21376;50.954;4.716;2023-03-02T14:59:53;28.75;;;14.43;;
35239;SDS011;21376;50.954;4.716;2023-03-02T15:02:21;27.73;;;14.38;;
35239;SDS011;21376;50.954;4.716;2023-03-02T15:04:48;24.20;;;13.88;;
35239;SDS011;21376;50.954;4.716;2023-03-02T15:07:16;22.13;;;13.43;;
35239;SDS011;21376;50.954;4.716;2023-03-02T15:09:45;20.98;;;12.75;;
35239;SDS011;21376;50.954;4.716;2023-03-02T15:12:15;24.77;;;14.27;;
35239;SDS011;21376;50.954;4.716;2023-03-02T15:14:45;23.00;;;13.32;;
35239;SDS011;21376;50.954;4.716;2023-03-02T15:17:11;23.80;;;14.82;;
35239;SDS011;21376;50.954;4.716;2023-03-02T15:19:38;24.88;;;14.18;;
35239;SDS011;21376;50.954;4.716;2023-03-02T15:22:05;29.38;;;15.82;;
35239;SDS011;21376;50.954;4.716;2023-03-02T15:24:34;24.38;;;14.45;;
35239;SDS011;21376;50.954;4.716;2023-03-02T15:29:28;22.38;;;14.90;;
35239;SDS011;21376;50.954;4.716;2023-03-02T15:34:25;27.25;;;14.57;;
35239;SDS011;21376;50.954;4.716;2023-03-02T15:36:51;29.83;;;16.10;;
35239;SDS011;21376;50.954;4.716;2023-03-02T15:39:18;25.45;;;15.40;;
35239;SDS011;21376;50.954;4.716;2023-03-02T15:41:44;32.58;;;15.93;;
35239;SDS011;21376;50.954;4.716;2023-03-02T15:44:15;30.23;;;16.17;;
35239;SDS011;21376;50.954;4.716;2023-03-02T15:46:54;25.35;;;13.98;;
35239;SDS011;21376;50.954;4.716;2023-03-02T15:49:23;24.77;;;15.02;;
35239;SDS011;21376;50.954;4.716;2023-03-02T15:51:54;28.35;;;15.68;;
35239;SDS011;21376;50.954;4.716;2023-03-02T15:54:22;24.42;;;14.00;;
35239;SDS011;21376;50.954;4.716;2023-03-02T15:56:51;23.92;;;13.90;;
35239;SDS011;21376;50.954;4.716;2023-03-02T15:59:21;25.92;;;14.77;;
35239;SDS011;21376;50.954;4.716;2023-03-02T16:01:49;27.30;;;14.75;;
35239;SDS011;21376;50.954;4.716;2023-03-02T16:04:15;23.50;;;13.77;;
35239;SDS011;21376;50.954;4.716;2023-03-02T16:09:13;31.02;;;15.93;;
35239;SDS011;21376;50.954;4.716;2023-03-02T16:11:40;25.77;;;14.55;;
35239;SDS011;21376;50.954;4.716;2023-03-02T16:14:08;30.63;;;15.52;;
35239;SDS011;21376;50.954;4.716;2023-03-02T16:16:34;31.92;;;17.13;;
35239;SDS011;21376;50.954;4.716;2023-03-02T16:19:00;27.88;;;15.32;;
35239;SDS011;21376;50.954;4.716;2023-03-02T16:21:26;33.95;;;16.13;;
35239;SDS011;21376;50.954;4.716;2023-03-02T16:23:53;25.33;;;13.75;;
35239;SDS011;21376;50.954;4.716;2023-03-02T16:26:20;26.13;;;14.10;;
35239;SDS011;21376;50.954;4.716;2023-03-02T16:31:18;27.88;;;14.13;;
35239;SDS011;21376;50.954;4.716;2023-03-02T16:33:47;24.65;;;13.40;;
35239;SDS011;21376;50.954;4.716;2023-03-02T16:36:15;22.92;;;13.52;;
35239;SDS011;21376;50.954;4.716;2023-03-02T16:38:41;22.92;;;13.00;;
35239;SDS011;21376;50.954;4.716;2023-03-02T16:41:12;25.05;;;14.27;;
35239;SDS011;21376;50.954;4.716;2023-03-02T16:43:44;26.45;;;13.88;;
35239;SDS011;21376;50.954;4.716;2023-03-02T16:46:22;26.70;;;13.63;;
35239;SDS011;21376;50.954;4.716;2023-03-02T16:48:50;29.15;;;14.07;;
35239;SDS011;21376;50.954;4.716;2023-03-02T16:51:16;24.75;;;13.85;;
35239;SDS011;21376;50.954;4.716;2023-03-02T16:53:43;28.25;;;14.15;;
35239;SDS011;21376;50.954;4.716;2023-03-02T16:56:13;28.23;;;13.80;;
35239;SDS011;21376;50.954;4.716;2023-03-02T16:58:39;23.40;;;13.40;;
35239;SDS011;21376;50.954;4.716;2023-03-02T17:01:12;24.45;;;13.75;;
35239;SDS011;21376;50.954;4.716;2023-03-02T17:03:41;26.98;;;13.68;;
35239;SDS011;21376;50.954;4.716;2023-03-02T17:06:07;24.60;;;12.57;;
35239;SDS011;21376;50.954;4.716;2023-03-02T17:08:35;25.00;;;13.50;;
35239;SDS011;21376;50.954;4.716;2023-03-02T17:11:01;23.67;;;13.25;;
35239;SDS011;21376;50.954;4.716;2023-03-02T17:13:28;25.60;;;13.73;;
35239;SDS011;21376;50.954;4.716;2023-03-02T17:15:56;23.77;;;13.90;;
35239;SDS011;21376;50.954;4.716;2023-03-02T17:18:22;25.33;;;14.50;;
35239;SDS011;21376;50.954;4.716;2023-03-02T17:23:58;30.27;;;15.50;;
35239;SDS011;21376;50.954;4.716;2023-03-02T17:26:59;68.13;;;35.65;;